Time;durP1;ratioP1;P1;durP2;ratioP2;P2;SDS_P1;SDS_P2;PMS_P1;PMS_P2;Temp;Humidity;BMP_temperature;BMP_pressure;BME280_temperature;BME280_humidity;BME280_pressure;Samples;Min_cycle;Max_cycle;Signal;HPM_P1;HPM_P2
2023/10/02 00:00:43;;;;;;;0.20;0.20;;;16.30;99.90;;;;;;5041289;28;20044;-70
2023/10/02 00:03:11;;;;;;;1.35;0.20;;;16.30;99.90;;;;;;5072530;28;20040;-70
2023/10/02 00:05:41;;;;;;;0.28;0.28;;;16.30;99.90;;;;;;5050325;28;20079;-70
2023/10/02 00:08:25;;;;;;;0.30;0.30;;;16.20;99.90;;;;;;5068952;28;20105;-70
2023/10/02 00:10:50;;;;;;;0.08;0.08;;;16.30;99.90;;;;;;5044661;28;20051;-70
2023/10/02 00:13:18;;;;;;;0.10;0.10;;;16.20;99.90;;;;;;5054093;28;20041;-70
2023/10/02 00:15:45;;;;;;;3.95;0.47;;;16.30;99.90;;;;;;5072422;28;20083;-70
2023/10/02 00:18:10;;;;;;;0.30;0.30;;;16.30;99.90;;;;;;5049450;28;20048;-70
2023/10/02 00:20:38;;;;;;;0.85;0.13;;;16.30;99.90;;;;;;5052701;28;20102;-70
2023/10/02 00:23:04;;;;;;;0.40;0.40;;;16.30;99.90;;;;;;5037421;28;20357;-70
2023/10/02 00:25:51;;;;;;;0.38;0.25;;;16.30;99.90;;;;;;5044808;28;20123;-70
2023/10/02 00:28:30;;;;;;;1.40;0.45;;;16.30;99.90;;;;;;5067875;28;20132;-70
2023/10/02 00:30:56;;;;;;;0.10;0.10;;;16.40;99.90;;;;;;5032155;28;20178;-70
2023/10/02 00:33:27;;;;;;;0.32;0.32;;;16.40;99.90;;;;;;5036506;28;20821;-70
2023/10/02 00:35:56;;;;;;;0.73;0.40;;;16.40;99.90;;;;;;5048580;28;20122;-70
2023/10/02 00:38:24;;;;;;;0.25;0.13;;;16.40;99.90;;;;;;5051861;28;20403;-70
2023/10/02 00:40:49;;;;;;;0.40;0.20;;;16.40;99.90;;;;;;5034998;28;21421;-70
2023/10/02 00:45:59;;;;;;;0.73;0.73;;;16.40;99.90;;;;;;5043162;28;20091;-70
2023/10/02 00:48:26;;;;;;;0.15;0.10;;;16.50;99.90;;;;;;5042136;28;20123;-70
2023/10/02 00:51:05;;;;;;;0.17;0.17;;;16.50;99.90;;;;;;5077781;28;20084;-70
2023/10/02 00:53:48;;;;;;;0.73;0.47;;;16.50;99.90;;;;;;5029363;28;20036;-70
2023/10/02 00:56:23;;;;;;;0.50;0.30;;;16.50;99.90;;;;;;5038550;28;20600;-70
2023/10/02 00:58:58;;;;;;;0.03;0.03;;;16.50;99.90;;;;;;5044074;28;20072;-70
2023/10/02 01:01:25;;;;;;;0.15;0.15;;;16.50;99.90;;;;;;5037850;28;20055;-70
2023/10/02 01:04:09;;;;;;;0.50;0.32;;;16.50;99.90;;;;;;5050741;28;20116;-70
2023/10/02 01:06:54;;;;;;;2.92;0.75;;;16.50;99.90;;;;;;5042259;28;20399;-70
2023/10/02 01:09:26;;;;;;;0.50;0.50;;;16.60;99.90;;;;;;5039807;28;20036;-70
2023/10/02 01:11:53;;;;;;;0.47;0.47;;;16.50;99.90;;;;;;5039206;28;20033;-70
2023/10/02 01:14:40;;;;;;;0.20;0.20;;;16.60;99.90;;;;;;5040836;28;20040;-70
2023/10/02 01:17:07;;;;;;;2.38;1.05;;;16.50;99.90;;;;;;5039012;28;20054;-70
2023/10/02 01:19:52;;;;;;;0.30;0.30;;;16.50;99.90;;;;;;5040901;28;20052;-70
2023/10/02 01:22:52;;;;;;;0.35;0.35;;;16.50;99.90;;;;;;5037052;28;20543;-70
2023/10/02 01:25:24;;;;;;;0.35;0.35;;;16.50;99.90;;;;;;5029342;28;20059;-70
2023/10/02 01:27:53;;;;;;;0.20;0.15;;;16.50;99.90;;;;;;5025059;28;20029;-70
2023/10/02 01:30:24;;;;;;;0.20;0.20;;;16.50;99.90;;;;;;5038834;28;20044;-70
2023/10/02 01:35:57;;;;;;;0.35;0.35;;;16.50;99.90;;;;;;5015984;28;20048;-70
2023/10/02 01:38:26;;;;;;;0.65;0.65;;;16.50;99.90;;;;;;5041195;28;20037;-70
2023/10/02 01:41:03;;;;;;;0.73;0.73;;;16.50;99.90;;;;;;5039486;28;20475;-70
2023/10/02 01:43:32;;;;;;;0.20;0.20;;;16.50;99.90;;;;;;5043612;28;20049;-70
2023/10/02 01:46:00;;;;;;;1.92;0.30;;;16.60;99.90;;;;;;5041101;28;20040;-70
2023/10/02 01:48:36;;;;;;;3.75;0.55;;;16.60;99.90;;;;;;5041110;28;20499;-70
2023/10/02 01:51:21;;;;;;;0.40;0.40;;;16.60;99.90;;;;;;5057955;28;20047;-70
2023/10/02 01:53:56;;;;;;;0.03;0.03;;;16.50;99.90;;;;;;5042820;28;20040;-70
2023/10/02 01:56:24;;;;;;;0.10;0.10;;;16.60;99.90;;;;;;5023783;28;20064;-70
2023/10/02 01:58:50;;;;;;;1.58;0.47;;;16.60;99.90;;;;;;5050660;28;20093;-70
2023/10/02 02:01:17;;;;;;;0.93;0.73;;;16.60;99.90;;;;;;5022962;28;20075;-70
2023/10/02 02:03:55;;;;;;;0.30;0.30;;;16.50;99.90;;;;;;5070744;28;20120;-70
2023/10/02 02:06:22;;;;;;;0.47;0.47;;;16.60;99.90;;;;;;5047903;28;20052;-70
2023/10/02 02:08:53;;;;;;;0.85;0.65;;;16.50;99.90;;;;;;5036597;28;20484;-70
2023/10/02 02:11:21;;;;;;;0.10;0.10;;;16.60;99.90;;;;;;5038802;28;20446;-70
2023/10/02 02:13:48;;;;;;;0.20;0.20;;;16.60;99.90;;;;;;5039793;28;20040;-70
2023/10/02 02:16:16;;;;;;;2.08;0.80;;;16.50;99.90;;;;;;5064519;28;20047;-70
2023/10/02 02:18:45;;;;;;;1.45;1.00;;;16.50;99.90;;;;;;5046303;28;20040;-70
2023/10/02 02:21:16;;;;;;;1.13;0.25;;;16.50;99.90;;;;;;5043705;28;20032;-70
2023/10/02 02:23:42;;;;;;;0.55;0.38;;;16.50;99.90;;;;;;5070896;28;20099;-70
2023/10/02 02:26:10;;;;;;;0.20;0.20;;;16.50;99.90;;;;;;5037380;28;20651;-70
2023/10/02 02:28:43;;;;;;;3.92;0.30;;;16.40;99.90;;;;;;5036747;28;20047;-70
2023/10/02 02:31:29;;;;;;;0.38;0.38;;;16.40;99.90;;;;;;5044158;28;20044;-70
2023/10/02 02:33:57;;;;;;;1.60;0.90;;;16.40;99.90;;;;;;5039558;28;20049;-70
2023/10/02 02:36:25;;;;;;;0.98;0.95;;;16.40;99.90;;;;;;5041749;28;20041;-70
2023/10/02 02:39:15;;;;;;;1.60;1.25;;;16.40;99.90;;;;;;5041593;28;20045;-70
2023/10/02 02:41:41;;;;;;;0.30;0.30;;;16.30;99.90;;;;;;5054035;28;20052;-70
2023/10/02 02:44:29;;;;;;;0.88;0.88;;;16.30;99.90;;;;;;5041091;28;20178;-70
2023/10/02 02:46:53;;;;;;;0.22;0.22;;;16.30;99.90;;;;;;5055915;28;20067;-70
2023/10/02 02:49:19;;;;;;;0.38;0.25;;;16.20;99.90;;;;;;5039988;28;20036;-70
2023/10/02 02:51:48;;;;;;;0.28;0.28;;;16.20;99.90;;;;;;5047549;28;20048;-70
2023/10/02 02:54:15;;;;;;;0.10;0.10;;;16.20;99.90;;;;;;5050306;28;20067;-70
2023/10/02 02:56:41;;;;;;;3.22;0.68;;;16.10;99.90;;;;;;5043847;28;20036;-70
2023/10/02 02:59:08;;;;;;;1.38;1.02;;;16.10;99.90;;;;;;5039238;28;20427;-70
2023/10/02 03:01:34;;;;;;;1.35;0.40;;;16.10;99.90;;;;;;5054789;28;20044;-70
2023/10/02 03:04:11;;;;;;;2.65;1.40;;;16.10;99.90;;;;;;5037943;28;20071;-70
2023/10/02 03:06:37;;;;;;;5.00;1.02;;;16.00;99.90;;;;;;5040947;28;20509;-70
2023/10/02 03:09:05;;;;;;;1.52;0.65;;;16.00;99.90;;;;;;5044460;28;20403;-70
2023/10/02 03:11:32;;;;;;;2.10;1.67;;;16.00;99.90;;;;;;5033528;28;20049;-70
2023/10/02 03:14:12;;;;;;;4.30;1.25;;;16.00;99.90;;;;;;5040023;28;20063;-70
2023/10/02 03:16:38;;;;;;;2.63;0.60;;;15.90;99.90;;;;;;5040678;28;20037;-70
2023/10/02 03:19:07;;;;;;;0.52;0.52;;;15.90;99.90;;;;;;5063103;28;20033;-70
2023/10/02 03:21:37;;;;;;;2.85;1.13;;;15.90;99.90;;;;;;5036021;28;20534;-70
2023/10/02 03:24:04;;;;;;;2.88;0.32;;;15.90;99.90;;;;;;5071390;28;20036;-70
2023/10/02 03:29:06;;;;;;;0.47;0.20;;;15.80;99.90;;;;;;5056222;28;20070;-70
2023/10/02 03:31:49;;;;;;;1.17;0.68;;;15.80;99.90;;;;;;5046501;28;20431;-70
2023/10/02 03:34:30;;;;;;;;;;;15.70;99.90;;;;;;5059844;28;20043;-70
2023/10/02 03:36:59;;;;;;;2.05;1.50;;;15.70;99.90;;;;;;5074564;28;20397;-70
2023/10/02 03:42:21;;;;;;;0.63;0.45;;;15.60;99.90;;;;;;5043539;28;21789;-70
2023/10/02 03:44:49;;;;;;;0.43;0.43;;;15.60;99.90;;;;;;5043654;28;20048;-70
2023/10/02 03:47:15;;;;;;;1.58;1.48;;;15.50;99.90;;;;;;5044748;28;20044;-70
2023/10/02 03:49:44;;;;;;;0.68;0.68;;;15.40;99.90;;;;;;5052057;28;20518;-70
2023/10/02 03:52:14;;;;;;;2.05;0.85;;;15.40;99.90;;;;;;5049397;28;20051;-70
2023/10/02 03:54:44;;;;;;;1.65;0.68;;;15.30;99.90;;;;;;5056304;28;20036;-70
2023/10/02 03:57:11;;;;;;;0.38;0.38;;;15.30;99.90;;;;;;5069324;28;20093;-70
2023/10/02 03:59:52;;;;;;;0.93;0.25;;;15.30;99.90;;;;;;5038803;28;20120;-70
2023/10/02 04:02:30;;;;;;;0.95;0.80;;;15.30;99.90;;;;;;5049158;28;20131;-70
2023/10/02 04:04:56;;;;;;;1.00;0.32;;;15.20;99.90;;;;;;5057774;28;20032;-70
2023/10/02 04:07:24;;;;;;;0.47;0.45;;;15.30;99.90;;;;;;5052064;28;20032;-70
2023/10/02 04:09:51;;;;;;;1.55;0.75;;;15.30;99.90;;;;;;5053450;28;20609;-70
2023/10/02 04:12:22;;;;;;;3.30;0.90;;;15.30;99.90;;;;;;5055022;28;20079;-70
2023/10/02 04:14:48;;;;;;;3.78;0.82;;;15.30;99.90;;;;;;5052260;28;20087;-70
2023/10/02 04:17:21;;;;;;;1.08;0.80;;;15.40;99.90;;;;;;5045421;28;20076;-70
2023/10/02 04:19:51;;;;;;;0.57;0.35;;;15.40;99.90;;;;;;5046899;28;20032;-70
2023/10/02 04:22:22;;;;;;;0.10;0.10;;;15.40;99.90;;;;;;5042007;28;20037;-70
2023/10/02 04:24:58;;;;;;;1.83;0.95;;;15.40;99.90;;;;;;5042855;28;20061;-70
2023/10/02 04:32:39;;;;;;;1.10;1.00;;;15.60;99.90;;;;;;5050297;28;20553;-70
2023/10/02 04:35:44;;;;;;;1.00;0.85;;;15.70;99.90;;;;;;5048127;28;20040;-70
2023/10/02 04:37:58;;;;;;;0.38;0.10;;;15.70;99.90;;;;;;5043735;28;20053;-70
2023/10/02 04:40:38;;;;;;;0.75;0.38;;;15.80;99.90;;;;;;5048684;28;20053;-70
2023/10/02 04:43:19;;;;;;;1.40;0.73;;;15.80;99.90;;;;;;5072692;28;20037;-70
2023/10/02 04:45:46;;;;;;;0.65;0.45;;;15.80;99.90;;;;;;5046270;28;20095;-70
2023/10/02 04:48:13;;;;;;;2.60;1.15;;;15.80;99.90;;;;;;5043442;28;20099;-70
2023/10/02 04:50:46;;;;;;;2.40;0.73;;;15.70;99.90;;;;;;5038692;28;20056;-70
2023/10/02 04:55:44;;;;;;;3.25;1.67;;;15.70;99.90;;;;;;5041758;28;20138;-70
2023/10/02 04:58:17;;;;;;;3.88;2.50;;;15.70;99.90;;;;;;5038495;28;20074;-70
2023/10/02 05:01:34;;;;;;;2.00;1.83;;;15.70;99.90;;;;;;5072524;28;20048;-69
2023/10/02 05:04:02;;;;;;;0.70;0.57;;;15.70;99.90;;;;;;5023245;28;20052;-70
2023/10/02 05:06:52;;;;;;;0.65;0.40;;;15.60;99.90;;;;;;5051081;28;20121;-70
2023/10/02 05:09:20;;;;;;;1.30;0.60;;;15.60;99.90;;;;;;5047008;28;20044;-70
2023/10/02 05:11:52;;;;;;;0.85;0.50;;;15.60;99.90;;;;;;5050395;28;20040;-70
2023/10/02 05:14:26;;;;;;;1.55;0.98;;;15.60;99.90;;;;;;5060388;28;20086;-70
2023/10/02 05:19:56;;;;;;;0.57;0.40;;;15.50;99.90;;;;;;5070997;28;20044;-70
2023/10/02 05:22:27;;;;;;;2.53;1.75;;;15.50;99.90;;;;;;5041326;28;20125;-70
2023/10/02 05:24:59;;;;;;;0.90;0.45;;;15.50;99.90;;;;;;5038601;28;20041;-70
2023/10/02 05:27:36;;;;;;;0.43;0.30;;;15.40;99.90;;;;;;5040385;28;20057;-70
2023/10/02 05:30:14;;;;;;;0.80;0.50;;;15.40;99.90;;;;;;5071437;28;20395;-70
2023/10/02 05:32:41;;;;;;;0.30;0.30;;;15.40;99.90;;;;;;5039628;28;20141;-70
2023/10/02 05:37:39;;;;;;;0.52;0.52;;;15.30;99.90;;;;;;5032275;28;20040;-70
2023/10/02 05:43:09;;;;;;;1.02;0.80;;;15.30;99.90;;;;;;5059861;28;20071;-71
2023/10/02 05:45:39;;;;;;;3.60;1.95;;;15.30;99.90;;;;;;5042405;28;20384;-70
2023/10/02 05:48:11;;;;;;;0.90;0.90;;;15.20;99.90;;;;;;5029892;28;20070;-70
2023/10/02 05:50:40;;;;;;;0.28;0.28;;;15.20;99.90;;;;;;5044797;28;20434;-70
2023/10/02 05:53:06;;;;;;;1.50;1.25;;;15.20;99.90;;;;;;5036852;28;20392;-70
2023/10/02 05:55:54;;;;;;;2.47;0.52;;;15.20;99.90;;;;;;5064476;28;20048;-70
2023/10/02 05:58:31;;;;;;;3.70;1.70;;;15.20;99.90;;;;;;5077754;28;20054;-70
2023/10/02 06:00:58;;;;;;;0.73;0.73;;;15.20;99.90;;;;;;5036519;28;20064;-70
2023/10/02 06:03:24;;;;;;;2.75;0.82;;;15.20;99.90;;;;;;5039091;28;20486;-70
2023/10/02 06:06:35;;;;;;;0.20;0.20;;;15.20;99.90;;;;;;5036934;28;20136;-70
2023/10/02 06:08:41;;;;;;;4.80;0.98;;;15.20;99.90;;;;;;5028498;28;20055;-70
2023/10/02 06:11:25;;;;;;;0.40;0.40;;;15.20;99.90;;;;;;5038373;28;20045;-70
2023/10/02 06:13:55;;;;;;;6.22;1.40;;;15.30;99.90;;;;;;5069000;28;20441;-70
2023/10/02 06:16:26;;;;;;;8.88;0.70;;;15.30;99.90;;;;;;5047509;28;20048;-70
2023/10/02 06:19:00;;;;;;;2.38;1.02;;;15.30;99.90;;;;;;5044105;28;20036;-70
2023/10/02 06:21:45;;;;;;;1.25;1.13;;;15.30;99.90;;;;;;5040699;28;20135;-70
2023/10/02 06:24:15;;;;;;;6.82;1.02;;;15.30;99.90;;;;;;5040300;28;20060;-70
2023/10/02 06:26:49;;;;;;;0.80;0.30;;;15.40;99.90;;;;;;5041251;28;20041;-70
2023/10/02 06:29:24;;;;;;;2.75;0.85;;;15.40;99.90;;;;;;5037036;28;20051;-70
2023/10/02 06:32:05;;;;;;;1.73;1.08;;;15.40;99.90;;;;;;5042653;28;20124;-70
2023/10/02 06:34:38;;;;;;;2.55;0.65;;;15.60;99.90;;;;;;5047031;28;20040;-70
2023/10/02 06:37:11;;;;;;;0.82;0.82;;;15.60;99.90;;;;;;5074429;28;20036;-70
2023/10/02 06:40:14;;;;;;;2.75;2.22;;;15.70;99.90;;;;;;5042438;28;20047;-70
2023/10/02 06:42:50;;;;;;;1.83;1.17;;;15.80;99.90;;;;;;5043797;28;20493;-71
2023/10/02 06:45:25;;;;;;;0.65;0.65;;;15.80;99.90;;;;;;5042094;28;20069;-71
2023/10/02 06:47:50;;;;;;;2.35;1.17;;;15.90;99.90;;;;;;5051488;28;20051;-71
2023/10/02 06:50:31;;;;;;;4.07;1.15;;;15.90;99.90;;;;;;5045461;28;20049;-70
2023/10/02 06:53:00;;;;;;;1.35;1.23;;;16.00;99.90;;;;;;5046548;28;20487;-70
2023/10/02 06:55:26;;;;;;;5.53;1.58;;;16.10;99.90;;;;;;5033201;28;20047;-70
2023/10/02 06:57:56;;;;;;;1.98;1.35;;;16.10;99.90;;;;;;5048379;28;20037;-70
2023/10/02 07:00:25;;;;;;;3.55;0.88;;;16.20;99.90;;;;;;5044611;28;20072;-70
2023/10/02 07:02:57;;;;;;;6.15;2.33;;;16.20;99.90;;;;;;5048834;28;20115;-70
2023/10/02 07:05:27;;;;;;;0.93;0.82;;;16.20;99.90;;;;;;5044944;28;20040;-70
2023/10/02 07:08:01;;;;;;;1.30;0.52;;;16.20;99.90;;;;;;5044118;28;20028;-71
2023/10/02 07:10:29;;;;;;;2.97;1.20;;;16.30;99.90;;;;;;5042514;28;20043;-70
2023/10/02 07:12:55;;;;;;;1.17;1.10;;;16.30;99.90;;;;;;5041682;28;20080;-71
2023/10/02 07:15:26;;;;;;;2.13;1.38;;;16.40;99.90;;;;;;5041920;28;20582;-70
2023/10/02 07:18:00;;;;;;;3.88;1.15;;;16.40;99.90;;;;;;5039508;28;20037;-70
2023/10/02 07:20:42;;;;;;;0.40;0.40;;;16.40;99.90;;;;;;5042294;28;20067;-70
2023/10/02 07:23:19;;;;;;;1.23;0.90;;;16.50;99.90;;;;;;5054450;28;20048;-70
2023/10/02 07:25:50;;;;;;;0.95;0.95;;;16.50;99.90;;;;;;5052902;28;20492;-71
2023/10/02 07:28:18;;;;;;;2.75;1.48;;;16.50;99.90;;;;;;5045263;28;20040;-70
2023/10/02 07:30:45;;;;;;;1.40;0.90;;;16.60;99.90;;;;;;5054302;28;20072;-70
2023/10/02 07:33:11;;;;;;;2.20;0.95;;;16.60;99.90;;;;;;5049879;28;20044;-70
2023/10/02 07:35:36;;;;;;;4.25;2.55;;;16.70;99.90;;;;;;5055061;28;20036;-70
2023/10/02 07:38:08;;;;;;;7.57;2.05;;;16.70;99.90;;;;;;5050081;28;20090;-70
2023/10/02 07:40:46;;;;;;;1.43;1.33;;;16.80;99.90;;;;;;5044104;28;20078;-71
2023/10/02 07:43:19;;;;;;;1.65;1.52;;;16.80;99.90;;;;;;5043317;28;20140;-70
2023/10/02 07:46:01;;;;;;;1.10;1.10;;;16.80;99.90;;;;;;5051103;28;20344;-71
2023/10/02 07:48:30;;;;;;;;;;;16.80;99.90;;;;;;5049326;28;20174;-70
2023/10/02 07:50:59;;;;;;;2.75;1.88;;;16.90;99.90;;;;;;5080645;28;20316;-71
2023/10/02 07:53:38;;;;;;;3.25;2.70;;;16.90;99.90;;;;;;5048741;28;20044;-71
2023/10/02 07:56:04;;;;;;;3.22;1.73;;;16.90;99.90;;;;;;5073261;28;20049;-71
2023/10/02 07:58:31;;;;;;;3.13;2.20;;;17.00;99.90;;;;;;5058244;28;20039;-71
2023/10/02 08:01:06;;;;;;;1.60;1.50;;;17.00;99.90;;;;;;5038106;28;20045;-70
2023/10/02 08:03:34;;;;;;;3.33;1.77;;;17.10;99.90;;;;;;5049319;28;20682;-71
2023/10/02 08:06:20;;;;;;;8.98;2.40;;;17.20;99.90;;;;;;5080410;28;20036;-71
2023/10/02 08:08:47;;;;;;;1.40;1.35;;;17.20;99.90;;;;;;5044516;28;20412;-70
2023/10/02 08:11:12;;;;;;;8.40;3.35;;;17.30;99.90;;;;;;5049057;28;20479;-71
2023/10/02 08:13:48;;;;;;;3.50;2.20;;;17.30;99.90;;;;;;5043208;28;20043;-70
2023/10/02 08:16:17;;;;;;;4.43;1.70;;;17.40;99.90;;;;;;5052766;28;20059;-71
2023/10/02 08:18:58;;;;;;;2.28;1.83;;;17.40;99.90;;;;;;5053011;28;20181;-71
2023/10/02 08:21:46;;;;;;;2.20;1.88;;;17.40;99.90;;;;;;5066906;28;20087;-71
2023/10/02 08:24:12;;;;;;;7.70;2.40;;;17.50;99.90;;;;;;5049210;28;20060;-71
2023/10/02 08:26:40;;;;;;;2.25;1.95;;;17.60;99.90;;;;;;5053166;28;20475;-71
2023/10/02 08:29:10;;;;;;;2.13;1.52;;;17.70;99.90;;;;;;5038333;28;20483;-71
2023/10/02 08:31:43;;;;;;;3.20;2.90;;;17.70;99.90;;;;;;5049071;28;20414;-70
2023/10/02 08:34:24;;;;;;;2.72;1.65;;;17.70;99.90;;;;;;5035266;28;20052;-71
2023/10/02 08:37:07;;;;;;;3.97;2.08;;;17.70;99.90;;;;;;5044610;28;20044;-71
2023/10/02 08:39:41;;;;;;;2.42;1.83;;;17.80;99.90;;;;;;5045785;28;20052;-71
2023/10/02 08:42:09;;;;;;;2.97;2.75;;;17.90;99.90;;;;;;5073609;28;20041;-71
2023/10/02 08:44:38;;;;;;;3.03;1.60;;;17.90;99.90;;;;;;5055564;28;20028;-71
2023/10/02 08:47:09;;;;;;;2.78;1.83;;;18.00;99.90;;;;;;5050725;28;20476;-70
2023/10/02 08:49:36;;;;;;;4.13;2.30;;;18.10;99.90;;;;;;5057983;28;20041;-71
2023/10/02 08:52:06;;;;;;;0.80;0.80;;;18.20;99.90;;;;;;5043569;28;20051;-72
2023/10/02 08:54:32;;;;;;;4.03;2.00;;;18.20;99.90;;;;;;5051274;28;20048;-70
2023/10/02 08:57:06;;;;;;;2.15;1.85;;;18.20;99.90;;;;;;5049392;28;20055;-71
2023/10/02 08:59:41;;;;;;;7.05;3.95;;;18.20;99.90;;;;;;5050915;28;20498;-68
2023/10/02 09:02:17;;;;;;;3.13;1.95;;;18.20;99.90;;;;;;5044015;28;20392;-68
2023/10/02 09:04:57;;;;;;;4.28;2.20;;;18.20;99.90;;;;;;5042715;28;20044;-68
2023/10/02 09:07:45;;;;;;;6.38;2.90;;;18.30;99.90;;;;;;5045847;28;20094;-71
2023/10/02 09:10:24;;;;;;;9.70;5.13;;;18.30;99.90;;;;;;5044129;28;20072;-71
2023/10/02 09:13:19;;;;;;;8.23;4.32;;;18.50;99.90;;;;;;5045545;28;20037;-71
2023/10/02 09:15:53;;;;;;;6.50;2.97;;;18.50;99.90;;;;;;5041657;28;20044;-69
2023/10/02 09:18:34;;;;;;;2.45;1.98;;;18.70;99.90;;;;;;5051597;28;20057;-69
2023/10/02 09:21:13;;;;;;;7.28;3.10;;;18.90;99.90;;;;;;5039287;28;20498;-71
2023/10/02 09:23:52;;;;;;;7.45;3.22;;;19.00;99.90;;;;;;5069606;28;20048;-71
2023/10/02 09:26:30;;;;;;;4.88;3.13;;;19.10;99.90;;;;;;5052457;28;20066;-68
2023/10/02 09:28:58;;;;;;;9.52;2.92;;;19.20;99.90;;;;;;5047719;28;20066;-69
2023/10/02 09:31:34;;;;;;;2.00;1.75;;;19.30;99.90;;;;;;5043447;28;20041;-71
2023/10/02 09:34:10;;;;;;;2.63;2.20;;;19.30;99.90;;;;;;5039999;28;20037;-68
2023/10/02 09:36:47;;;;;;;8.93;3.20;;;19.40;99.90;;;;;;5044865;28;20510;-69
2023/10/02 09:39:31;;;;;;;8.98;2.92;;;19.40;99.90;;;;;;5042693;28;20033;-69
2023/10/02 09:42:05;;;;;;;13.88;4.13;;;19.50;99.90;;;;;;5059393;28;20093;-71
2023/10/02 09:44:40;;;;;;;6.43;4.15;;;19.50;99.90;;;;;;5050208;28;20043;-71
2023/10/02 09:47:06;;;;;;;1.77;1.63;;;19.50;99.90;;;;;;5033260;28;20053;-69
2023/10/02 09:49:36;;;;;;;1.73;1.58;;;19.60;99.90;;;;;;5036052;28;20040;-71
2023/10/02 09:52:15;;;;;;;4.93;1.75;;;19.60;99.90;;;;;;5038189;28;20036;-71
2023/10/02 09:55:04;;;;;;;4.95;3.75;;;19.60;99.90;;;;;;5075680;28;20045;-71
2023/10/02 09:57:38;;;;;;;11.57;5.57;;;19.60;99.90;;;;;;5032528;28;20052;-71
2023/10/02 10:03:22;;;;;;;1.92;1.67;;;19.50;99.90;;;;;;5039512;28;20040;-71
2023/10/02 10:06:06;;;;;;;4.20;3.67;;;19.60;99.90;;;;;;5042997;28;20040;-71
2023/10/02 10:12:17;;;;;;;3.95;2.00;;;19.50;99.90;;;;;;5041792;28;20051;-71
2023/10/02 10:14:36;;;;;;;2.72;2.47;;;19.40;99.90;;;;;;5043481;28;20169;-72
2023/10/02 10:17:20;;;;;;;3.05;2.72;;;19.50;99.90;;;;;;5035250;28;20071;-71
2023/10/02 10:20:09;;;;;;;5.47;3.03;;;19.60;99.90;;;;;;5044121;28;20044;-68
2023/10/02 10:22:41;;;;;;;6.85;3.13;;;19.70;99.90;;;;;;5031604;28;20206;-69
2023/10/02 10:27:41;;;;;;;3.00;2.42;;;19.80;99.90;;;;;;5044841;28;20119;-70
2023/10/02 10:30:22;;;;;;;7.43;3.30;;;19.80;99.90;;;;;;5050623;28;20048;-68
2023/10/02 10:35:38;;;;;;;5.78;3.15;;;19.90;99.90;;;;;;5077387;28;20155;-67
2023/10/02 10:38:25;;;;;;;7.35;3.60;;;19.90;99.90;;;;;;5037362;28;20040;-69
2023/10/02 10:41:01;;;;;;;15.02;3.78;;;19.90;99.90;;;;;;5045336;28;20555;-69
2023/10/02 10:46:28;;;;;;;2.92;2.72;;;20.10;99.90;;;;;;5043587;28;20036;-69
2023/10/02 10:49:15;;;;;;;2.83;1.45;;;20.30;99.90;;;;;;5040536;28;20033;-70
2023/10/02 10:51:42;;;;;;;4.15;2.13;;;20.50;99.90;;;;;;5045231;28;20037;-70
2023/10/02 10:54:27;;;;;;;2.72;2.50;;;20.70;99.90;;;;;;5036859;28;20051;-69
2023/10/02 11:00:23;;;;;;;2.85;2.05;;;21.00;99.90;;;;;;5040523;28;20055;-69
2023/10/02 11:02:56;;;;;;;2.55;1.67;;;21.00;99.90;;;;;;5060384;28;20119;-69
2023/10/02 11:05:23;;;;;;;3.55;2.78;;;20.90;99.90;;;;;;5034655;28;20399;-69
2023/10/02 11:07:49;;;;;;;3.90;2.85;;;21.00;99.90;;;;;;5031473;28;20709;-69
2023/10/02 11:10:22;;;;;;;6.85;3.50;;;20.90;99.90;;;;;;5040428;28;20045;-70
2023/10/02 11:12:59;;;;;;;2.58;1.58;;;21.00;99.90;;;;;;5057987;28;20040;-68
2023/10/02 11:15:54;;;;;;;6.70;3.47;;;20.90;99.90;;;;;;5054080;28;20068;-70
2023/10/02 11:18:21;;;;;;;2.88;2.20;;;20.90;99.90;;;;;;5030435;28;20060;-69
2023/10/02 11:20:51;;;;;;;10.52;2.58;;;20.80;99.90;;;;;;5073337;28;20052;-69
2023/10/02 11:23:44;;;;;;;9.88;2.67;;;20.80;99.90;;;;;;5037100;28;20138;-68
2023/10/02 11:26:13;;;;;;;1.90;1.58;;;20.70;99.90;;;;;;5047310;28;20040;-70
2023/10/02 11:28:41;;;;;;;3.50;2.28;;;20.70;99.90;;;;;;5042753;28;20395;-70
2023/10/02 11:31:30;;;;;;;4.07;1.85;;;20.70;99.90;;;;;;5038237;28;20052;-68
2023/10/02 11:34:04;;;;;;;3.00;2.47;;;20.80;99.90;;;;;;5073200;28;20179;-70
2023/10/02 11:36:34;;;;;;;5.53;3.70;;;20.80;99.90;;;;;;5044461;28;20048;-69
2023/10/02 11:39:07;;;;;;;2.35;2.10;;;20.90;99.90;;;;;;5038398;28;20041;-70
2023/10/02 11:41:33;;;;;;;1.80;1.70;;;20.80;99.90;;;;;;5036236;28;20441;-70
2023/10/02 11:43:59;;;;;;;3.78;1.95;;;20.80;99.90;;;;;;5036207;28;20037;-68
2023/10/02 11:46:25;;;;;;;3.08;2.80;;;20.80;99.90;;;;;;5048680;28;20049;-70
2023/10/02 11:48:51;;;;;;;13.13;3.08;;;20.80;99.90;;;;;;5044875;28;20037;-70
2023/10/02 11:51:17;;;;;;;7.00;2.90;;;20.90;99.90;;;;;;5053832;28;20040;-70
2023/10/02 11:53:42;;;;;;;3.45;3.05;;;21.00;99.90;;;;;;5043679;28;20047;-70
2023/10/02 11:56:08;;;;;;;8.77;3.83;;;21.10;99.90;;;;;;5043363;28;20546;-68
2023/10/02 11:58:34;;;;;;;2.25;1.92;;;21.10;99.90;;;;;;5043112;28;20136;-70
2023/10/02 12:01:04;;;;;;;5.28;4.07;;;21.20;99.90;;;;;;5042582;28;20440;-70
2023/10/02 12:03:35;;;;;;;1.63;1.52;;;21.20;99.90;;;;;;5041200;28;20036;-69
2023/10/02 12:06:02;;;;;;;1.10;0.68;;;21.30;99.90;;;;;;5045158;28;20037;-69
2023/10/02 12:08:27;;;;;;;2.22;2.03;;;21.30;99.90;;;;;;5041815;28;20054;-69
2023/10/02 12:10:56;;;;;;;2.95;0.95;;;21.40;99.90;;;;;;5040877;28;20037;-68
2023/10/02 12:13:21;;;;;;;3.10;2.33;;;21.40;99.90;;;;;;5068973;28;20048;-68
2023/10/02 12:15:49;;;;;;;1.95;1.10;;;21.50;99.90;;;;;;5045245;28;20494;-69
2023/10/02 12:18:15;;;;;;;8.07;2.92;;;21.60;99.90;;;;;;5042157;28;20049;-69
2023/10/02 12:20:42;;;;;;;4.00;1.40;;;21.60;99.90;;;;;;5040526;28;20063;-70
2023/10/02 12:23:09;;;;;;;3.30;2.30;;;21.70;99.90;;;;;;5041220;28;20114;-70
2023/10/02 12:25:36;;;;;;;3.75;0.95;;;21.70;99.90;;;;;;5043620;28;20549;-71
2023/10/02 12:28:02;;;;;;;2.67;2.20;;;21.70;99.90;;;;;;5039820;28;20036;-71
2023/10/02 12:30:28;;;;;;;2.08;1.10;;;21.60;99.90;;;;;;5034347;28;20565;-69
2023/10/02 12:32:54;;;;;;;0.95;0.93;;;21.60;99.90;;;;;;5040379;28;20044;-71
2023/10/02 12:35:20;;;;;;;2.47;2.22;;;21.80;99.90;;;;;;5039453;28;20527;-71
2023/10/02 12:37:46;;;;;;;0.45;0.45;;;21.90;99.90;;;;;;5043623;28;20048;-70
2023/10/02 12:40:18;;;;;;;1.63;1.13;;;21.90;99.90;;;;;;5035152;28;20067;-70
2023/10/02 12:42:44;;;;;;;2.88;2.22;;;21.90;99.90;;;;;;5071988;28;20041;-69
2023/10/02 12:45:10;;;;;;;10.70;4.75;;;22.00;99.90;;;;;;5072895;28;20052;-71
2023/10/02 12:47:40;;;;;;;2.92;1.08;;;21.90;99.90;;;;;;5039350;28;20044;-68
2023/10/02 12:50:10;;;;;;;2.78;1.00;;;22.00;99.90;;;;;;5042258;28;20052;-70
2023/10/02 12:52:36;;;;;;;2.30;1.02;;;22.00;99.90;;;;;;5047080;28;20053;-68
2023/10/02 12:55:02;;;;;;;6.07;1.90;;;22.00;99.90;;;;;;5041929;28;20037;-71
2023/10/02 12:57:28;;;;;;;5.30;2.90;;;22.00;99.90;;;;;;5041293;28;20123;-70
2023/10/02 12:59:54;;;;;;;3.60;1.80;;;22.00;99.90;;;;;;5036659;28;20510;-70
2023/10/02 13:02:19;;;;;;;1.55;1.45;;;22.00;99.90;;;;;;5043963;28;20044;-71
2023/10/02 13:04:45;;;;;;;2.30;2.10;;;22.10;99.90;;;;;;5018354;28;20033;-70
2023/10/02 13:07:10;;;;;;;1.58;1.10;;;22.10;99.90;;;;;;5044422;28;20570;-70
2023/10/02 13:09:36;;;;;;;1.88;1.73;;;22.10;99.90;;;;;;5038067;28;20514;-68
2023/10/02 13:12:02;;;;;;;21.45;1.50;;;22.10;99.90;;;;;;5050991;28;20853;-69
2023/10/02 13:14:27;;;;;;;4.13;1.13;;;22.10;99.90;;;;;;5044439;28;20175;-69
2023/10/02 13:16:53;;;;;;;0.52;0.52;;;22.10;99.90;;;;;;5050722;28;20048;-70
2023/10/02 13:19:19;;;;;;;4.93;3.28;;;22.10;99.90;;;;;;5032330;28;20051;-70
2023/10/02 13:21:45;;;;;;;1.10;1.00;;;22.20;99.90;;;;;;5050787;28;20082;-72
2023/10/02 13:24:14;;;;;;;2.65;1.60;;;22.20;99.90;;;;;;5041721;28;20365;-70
2023/10/02 13:26:40;;;;;;;9.02;1.90;;;22.20;99.90;;;;;;5048513;28;20037;-71
2023/10/02 13:29:06;;;;;;;2.58;1.08;;;22.20;99.90;;;;;;5045590;28;20044;-70
2023/10/02 13:31:31;;;;;;;5.05;1.45;;;22.10;99.90;;;;;;5047114;28;20166;-67
2023/10/02 13:33:57;;;;;;;3.90;1.48;;;22.00;99.90;;;;;;5050878;28;20083;-71
2023/10/02 13:36:25;;;;;;;2.97;1.02;;;21.90;99.90;;;;;;5034242;28;20488;-71
2023/10/02 13:38:56;;;;;;;4.05;2.42;;;21.80;99.90;;;;;;5036425;28;20045;-71
2023/10/02 13:41:22;;;;;;;2.33;0.83;;;21.80;99.90;;;;;;5080872;28;20040;-71
2023/10/02 13:43:48;;;;;;;2.83;1.73;;;21.80;99.90;;;;;;5037598;28;20137;-69
2023/10/02 13:46:16;;;;;;;1.40;0.90;;;21.80;99.90;;;;;;5041222;28;20518;-71
2023/10/02 13:48:46;;;;;;;1.40;0.68;;;21.90;99.90;;;;;;5042984;28;20037;-71
2023/10/02 13:51:13;;;;;;;1.85;1.10;;;21.90;99.90;;;;;;5033259;28;20068;-70
2023/10/02 13:53:40;;;;;;;2.75;1.75;;;21.90;99.90;;;;;;5045670;28;20364;-70
2023/10/02 13:56:17;;;;;;;1.02;1.02;;;21.90;99.90;;;;;;5046182;28;20419;-70
2023/10/02 13:58:48;;;;;;;1.60;1.27;;;21.90;99.90;;;;;;5052073;28;20550;-71